sensor_id;sensor_type;location;lat;lon;timestamp;temperature;humidity
3005;DHT22;1512;51.486;6.610;2023-05-21T00:02:33;15.00;1.00
3005;DHT22;1512;51.486;6.610;2023-05-21T00:06:42;14.90;1.00
3005;DHT22;1512;51.486;6.610;2023-05-21T00:10:51;14.90;1.00
3005;DHT22;1512;51.486;6.610;2023-05-21T00:15:00;14.90;1.00
3005;DHT22;1512;51.486;6.610;2023-05-21T00:19:09;14.90;1.00
3005;DHT22;1512;51.486;6.610;2023-05-21T00:23:17;14.80;1.00
3005;DHT22;1512;51.486;6.610;2023-05-21T00:27:26;14.70;1.00
3005;DHT22;1512;51.486;6.610;2023-05-21T00:31:54;14.60;1.00
3005;DHT22;1512;51.486;6.610;2023-05-21T00:36:03;14.60;1.00
3005;DHT22;1512;51.486;6.610;2023-05-21T00:40:12;14.60;1.00
3005;DHT22;1512;51.486;6.610;2023-05-21T00:44:22;14.50;1.00
3005;DHT22;1512;51.486;6.610;2023-05-21T00:48:31;14.40;1.00
3005;DHT22;1512;51.486;6.610;2023-05-21T00:52:42;14.40;1.00
3005;DHT22;1512;51.486;6.610;2023-05-21T00:56:52;14.40;1.00
3005;DHT22;1512;51.486;6.610;2023-05-21T01:01:01;14.30;1.00
3005;DHT22;1512;51.486;6.610;2023-05-21T01:05:10;14.20;1.00
3005;DHT22;1512;51.486;6.610;2023-05-21T01:09:19;14.20;1.00
3005;DHT22;1512;51.486;6.610;2023-05-21T01:13:28;14.20;1.00
3005;DHT22;1512;51.486;6.610;2023-05-21T01:17:39;14.20;1.00
3005;DHT22;1512;51.486;6.610;2023-05-21T01:21:55;14.20;1.00
3005;DHT22;1512;51.486;6.610;2023-05-21T01:26:02;14.30;1.00
3005;DHT22;1512;51.486;6.610;2023-05-21T01:30:12;14.30;1.00
3005;DHT22;1512;51.486;6.610;2023-05-21T01:34:29;14.30;1.00
3005;DHT22;1512;51.486;6.610;2023-05-21T01:38:40;14.30;1.00
3005;DHT22;1512;51.486;6.610;2023-05-21T01:42:48;14.20;1.00
3005;DHT22;1512;51.486;6.610;2023-05-21T01:46:58;14.20;1.00
3005;DHT22;1512;51.486;6.610;2023-05-21T01:51:07;14.20;1.00
3005;DHT22;1512;51.486;6.610;2023-05-21T01:55:16;14.10;1.00
3005;DHT22;1512;51.486;6.610;2023-05-21T01:59:25;14.10;1.00
3005;DHT22;1512;51.486;6.610;2023-05-21T02:03:34;14.10;1.00
3005;DHT22;1512;51.486;6.610;2023-05-21T02:07:44;14.10;1.00
3005;DHT22;1512;51.486;6.610;2023-05-21T02:11:54;14.00;1.00
3005;DHT22;1512;51.486;6.610;2023-05-21T02:16:04;14.00;1.00
3005;DHT22;1512;51.486;6.610;2023-05-21T02:20:15;14.00;1.00
3005;DHT22;1512;51.486;6.610;2023-05-21T02:24:24;14.00;1.00
3005;DHT22;1512;51.486;6.610;2023-05-21T02:28:33;13.90;1.00
3005;DHT22;1512;51.486;6.610;2023-05-21T02:32:43;14.00;1.00
3005;DHT22;1512;51.486;6.610;2023-05-21T02:36:52;14.00;1.00
3005;DHT22;1512;51.486;6.610;2023-05-21T02:41:01;13.90;1.00
3005;DHT22;1512;51.486;6.610;2023-05-21T02:45:11;13.90;1.00
3005;DHT22;1512;51.486;6.610;2023-05-21T02:49:19;13.80;1.00
3005;DHT22;1512;51.486;6.610;2023-05-21T02:53:28;13.90;1.00
3005;DHT22;1512;51.486;6.610;2023-05-21T02:57:37;13.90;1.00
3005;DHT22;1512;51.486;6.610;2023-05-21T03:01:46;13.90;1.00
3005;DHT22;1512;51.486;6.610;2023-05-21T03:05:55;13.90;1.00
3005;DHT22;1512;51.486;6.610;2023-05-21T03:10:06;13.90;1.00
3005;DHT22;1512;51.486;6.610;2023-05-21T03:14:14;13.80;1.00
3005;DHT22;1512;51.486;6.610;2023-05-21T03:18:23;13.70;1.00
3005;DHT22;1512;51.486;6.610;2023-05-21T03:22:32;13.70;1.00
3005;DHT22;1512;51.486;6.610;2023-05-21T03:26:41;13.60;1.00
3005;DHT22;1512;51.486;6.610;2023-05-21T03:30:49;13.60;1.00
3005;DHT22;1512;51.486;6.610;2023-05-21T03:34:59;13.50;1.00
3005;DHT22;1512;51.486;6.610;2023-05-21T03:39:07;13.60;1.00
3005;DHT22;1512;51.486;6.610;2023-05-21T03:43:16;13.60;1.00
3005;DHT22;1512;51.486;6.610;2023-05-21T03:47:25;13.70;1.00
3005;DHT22;1512;51.486;6.610;2023-05-21T03:51:33;13.70;1.00
3005;DHT22;1512;51.486;6.610;2023-05-21T03:55:42;13.70;1.00
3005;DHT22;1512;51.486;6.610;2023-05-21T03:59:51;13.70;1.00
3005;DHT22;1512;51.486;6.610;2023-05-21T04:03:59;13.70;1.00
3005;DHT22;1512;51.486;6.610;2023-05-21T04:08:09;13.70;1.00
3005;DHT22;1512;51.486;6.610;2023-05-21T04:12:17;13.70;1.00
3005;DHT22;1512;51.486;6.610;2023-05-21T04:16:29;13.60;1.00
3005;DHT22;1512;51.486;6.610;2023-05-21T04:20:39;13.50;1.00
3005;DHT22;1512;51.486;6.610;2023-05-21T04:24:48;13.50;1.00
3005;DHT22;1512;51.486;6.610;2023-05-21T04:28:57;13.50;1.00
3005;DHT22;1512;51.486;6.610;2023-05-21T04:33:05;13.50;1.00
3005;DHT22;1512;51.486;6.610;2023-05-21T04:37:16;13.50;1.00
3005;DHT22;1512;51.486;6.610;2023-05-21T04:41:25;13.60;1.00
3005;DHT22;1512;51.486;6.610;2023-05-21T04:45:35;13.50;1.00
3005;DHT22;1512;51.486;6.610;2023-05-21T04:49:44;13.50;1.00
3005;DHT22;1512;51.486;6.610;2023-05-21T04:53:55;13.60;1.00
3005;DHT22;1512;51.486;6.610;2023-05-21T04:58:08;13.60;1.00
3005;DHT22;1512;51.486;6.610;2023-05-21T05:02:19;13.60;1.00
3005;DHT22;1512;51.486;6.610;2023-05-21T05:06:28;13.70;1.00
3005;DHT22;1512;51.486;6.610;2023-05-21T05:10:36;13.70;1.00
3005;DHT22;1512;51.486;6.610;2023-05-21T05:14:45;13.70;1.00
3005;DHT22;1512;51.486;6.610;2023-05-21T05:18:53;13.70;1.00
3005;DHT22;1512;51.486;6.610;2023-05-21T05:23:04;13.70;1.00
3005;DHT22;1512;51.486;6.610;2023-05-21T05:27:13;13.80;1.00
3005;DHT22;1512;51.486;6.610;2023-05-21T05:31:22;14.00;1.00
3005;DHT22;1512;51.486;6.610;2023-05-21T05:35:35;14.00;1.00
3005;DHT22;1512;51.486;6.610;2023-05-21T05:39:47;14.10;1.00
3005;DHT22;1512;51.486;6.610;2023-05-21T05:44:03;14.10;1.00
3005;DHT22;1512;51.486;6.610;2023-05-21T05:57:19;14.30;1.00
3005;DHT22;1512;51.486;6.610;2023-05-21T06:01:28;14.40;1.00
3005;DHT22;1512;51.486;6.610;2023-05-21T06:05:38;14.40;1.00
3005;DHT22;1512;51.486;6.610;2023-05-21T06:09:47;14.50;1.00
3005;DHT22;1512;51.486;6.610;2023-05-21T06:13:56;14.50;1.00
3005;DHT22;1512;51.486;6.610;2023-05-21T06:18:06;14.60;1.00
3005;DHT22;1512;51.486;6.610;2023-05-21T06:22:15;14.70;1.00
3005;DHT22;1512;51.486;6.610;2023-05-21T06:26:24;14.80;1.00
3005;DHT22;1512;51.486;6.610;2023-05-21T06:30:33;14.90;1.00
3005;DHT22;1512;51.486;6.610;2023-05-21T06:34:41;14.90;1.00
3005;DHT22;1512;51.486;6.610;2023-05-21T06:38:50;15.00;1.00
3005;DHT22;1512;51.486;6.610;2023-05-21T06:42:59;15.10;1.00
3005;DHT22;1512;51.486;6.610;2023-05-21T06:47:09;15.20;1.00
3005;DHT22;1512;51.486;6.610;2023-05-21T06:51:18;15.30;1.00
3005;DHT22;1512;51.486;6.610;2023-05-21T06:55:27;15.30;1.00
3005;DHT22;1512;51.486;6.610;2023-05-21T06:59:36;15.40;1.00
3005;DHT22;1512;51.486;6.610;2023-05-21T07:03:44;15.50;1.00
3005;DHT22;1512;51.486;6.610;2023-05-21T07:07:53;15.60;1.00
3005;DHT22;1512;51.486;6.610;2023-05-21T07:12:02;15.60;1.00
3005;DHT22;1512;51.486;6.610;2023-05-21T07:16:12;15.80;1.00
3005;DHT22;1512;51.486;6.610;2023-05-21T07:20:20;15.80;1.00
3005;DHT22;1512;51.486;6.610;2023-05-21T07:24:29;15.80;1.00
3005;DHT22;1512;51.486;6.610;2023-05-21T07:28:38;15.90;1.00
3005;DHT22;1512;51.486;6.610;2023-05-21T07:32:46;15.90;1.00
3005;DHT22;1512;51.486;6.610;2023-05-21T07:36:55;16.00;1.00
3005;DHT22;1512;51.486;6.610;2023-05-21T07:41:04;16.10;1.00
3005;DHT22;1512;51.486;6.610;2023-05-21T07:45:12;16.20;1.00
3005;DHT22;1512;51.486;6.610;2023-05-21T07:49:21;16.30;1.00
3005;DHT22;1512;51.486;6.610;2023-05-21T07:53:30;16.30;1.00
3005;DHT22;1512;51.486;6.610;2023-05-21T07:57:39;16.50;1.00
3005;DHT22;1512;51.486;6.610;2023-05-21T08:01:48;16.50;1.00
3005;DHT22;1512;51.486;6.610;2023-05-21T08:05:57;16.60;1.00
3005;DHT22;1512;51.486;6.610;2023-05-21T08:10:06;16.60;1.00
3005;DHT22;1512;51.486;6.610;2023-05-21T08:14:15;16.70;1.00
3005;DHT22;1512;51.486;6.610;2023-05-21T08:18:24;16.90;1.00
3005;DHT22;1512;51.486;6.610;2023-05-21T08:22:33;17.00;1.00
3005;DHT22;1512;51.486;6.610;2023-05-21T08:26:43;17.10;1.00
3005;DHT22;1512;51.486;6.610;2023-05-21T08:30:54;17.30;1.00
3005;DHT22;1512;51.486;6.610;2023-05-21T08:35:04;17.40;1.00
3005;DHT22;1512;51.486;6.610;2023-05-21T08:39:13;17.40;1.00
3005;DHT22;1512;51.486;6.610;2023-05-21T08:43:24;17.50;1.00
3005;DHT22;1512;51.486;6.610;2023-05-21T08:47:36;17.60;1.00
3005;DHT22;1512;51.486;6.610;2023-05-21T08:51:46;17.60;1.00
3005;DHT22;1512;51.486;6.610;2023-05-21T08:55:56;17.70;1.00
3005;DHT22;1512;51.486;6.610;2023-05-21T09:00:06;17.80;1.00
3005;DHT22;1512;51.486;6.610;2023-05-21T09:04:16;17.80;1.00
3005;DHT22;1512;51.486;6.610;2023-05-21T09:08:30;17.90;1.00
3005;DHT22;1512;51.486;6.610;2023-05-21T09:12:39;18.00;1.00
3005;DHT22;1512;51.486;6.610;2023-05-21T09:16:48;18.00;1.00
3005;DHT22;1512;51.486;6.610;2023-05-21T09:20:57;18.10;1.00
3005;DHT22;1512;51.486;6.610;2023-05-21T09:25:07;18.10;1.00
3005;DHT22;1512;51.486;6.610;2023-05-21T09:29:16;18.10;1.00
3005;DHT22;1512;51.486;6.610;2023-05-21T09:33:26;18.20;1.00
3005;DHT22;1512;51.486;6.610;2023-05-21T09:37:43;18.20;1.00
3005;DHT22;1512;51.486;6.610;2023-05-21T09:41:55;18.20;1.00
3005;DHT22;1512;51.486;6.610;2023-05-21T09:46:03;18.30;1.00
3005;DHT22;1512;51.486;6.610;2023-05-21T09:50:14;18.40;1.00
3005;DHT22;1512;51.486;6.610;2023-05-21T09:54:30;18.50;1.00
3005;DHT22;1512;51.486;6.610;2023-05-21T09:58:40;18.70;1.00
3005;DHT22;1512;51.486;6.610;2023-05-21T10:02:53;18.90;1.00
3005;DHT22;1512;51.486;6.610;2023-05-21T10:07:19;19.10;1.00
3005;DHT22;1512;51.486;6.610;2023-05-21T10:11:30;19.40;1.00
3005;DHT22;1512;51.486;6.610;2023-05-21T10:15:47;19.60;1.00
3005;DHT22;1512;51.486;6.610;2023-05-21T10:19:58;19.80;99.90
3005;DHT22;1512;51.486;6.610;2023-05-21T10:24:08;19.90;1.00
3005;DHT22;1512;51.486;6.610;2023-05-21T10:28:19;20.00;99.90
3005;DHT22;1512;51.486;6.610;2023-05-21T10:32:28;20.10;99.90
3005;DHT22;1512;51.486;6.610;2023-05-21T10:36:37;20.20;99.90
3005;DHT22;1512;51.486;6.610;2023-05-21T10:40:48;20.30;99.90
3005;DHT22;1512;51.486;6.610;2023-05-21T10:45:08;20.20;99.90
3005;DHT22;1512;51.486;6.610;2023-05-21T10:57:59;20.50;99.90
3005;DHT22;1512;51.486;6.610;2023-05-21T11:02:06;20.90;99.90
3005;DHT22;1512;51.486;6.610;2023-05-21T11:06:25;21.30;99.90
3005;DHT22;1512;51.486;6.610;2023-05-21T11:10:40;21.50;99.90
3005;DHT22;1512;51.486;6.610;2023-05-21T11:14:57;21.90;99.90
3005;DHT22;1512;51.486;6.610;2023-05-21T11:19:05;22.10;99.90
3005;DHT22;1512;51.486;6.610;2023-05-21T11:23:14;21.90;99.90
3005;DHT22;1512;51.486;6.610;2023-05-21T11:27:30;21.90;99.90
3005;DHT22;1512;51.486;6.610;2023-05-21T11:31:45;21.70;99.90
3005;DHT22;1512;51.486;6.610;2023-05-21T11:35:58;21.40;99.90
3005;DHT22;1512;51.486;6.610;2023-05-21T11:40:25;21.30;99.90
3005;DHT22;1512;51.486;6.610;2023-05-21T11:44:42;21.30;99.90
3005;DHT22;1512;51.486;6.610;2023-05-21T11:48:52;21.20;99.90
3005;DHT22;1512;51.486;6.610;2023-05-21T11:53:01;21.40;99.90
3005;DHT22;1512;51.486;6.610;2023-05-21T11:57:10;21.60;99.90
3005;DHT22;1512;51.486;6.610;2023-05-21T12:01:24;21.70;99.90
3005;DHT22;1512;51.486;6.610;2023-05-21T12:05:48;22.10;99.90
3005;DHT22;1512;51.486;6.610;2023-05-21T12:09:58;22.50;99.90
3005;DHT22;1512;51.486;6.610;2023-05-21T12:14:08;22.70;99.90
3005;DHT22;1512;51.486;6.610;2023-05-21T12:18:18;22.80;99.90
3005;DHT22;1512;51.486;6.610;2023-05-21T12:22:26;22.90;99.90
3005;DHT22;1512;51.486;6.610;2023-05-21T12:26:36;23.00;99.90
3005;DHT22;1512;51.486;6.610;2023-05-21T12:30:45;23.10;99.90
3005;DHT22;1512;51.486;6.610;2023-05-21T12:34:55;23.00;99.90
3005;DHT22;1512;51.486;6.610;2023-05-21T12:39:04;22.90;99.90
3005;DHT22;1512;51.486;6.610;2023-05-21T12:43:16;22.80;99.90
3005;DHT22;1512;51.486;6.610;2023-05-21T12:47:26;23.00;99.90
3005;DHT22;1512;51.486;6.610;2023-05-21T12:51:38;23.00;99.90
3005;DHT22;1512;51.486;6.610;2023-05-21T12:55:47;23.30;99.90
3005;DHT22;1512;51.486;6.610;2023-05-21T12:59:58;23.60;99.90
3005;DHT22;1512;51.486;6.610;2023-05-21T13:04:07;23.60;99.90
3005;DHT22;1512;51.486;6.610;2023-05-21T13:08:16;23.70;99.90
3005;DHT22;1512;51.486;6.610;2023-05-21T13:12:26;23.90;99.90
3005;DHT22;1512;51.486;6.610;2023-05-21T13:16:35;24.10;99.90
3005;DHT22;1512;51.486;6.610;2023-05-21T13:20:44;24.20;99.90
3005;DHT22;1512;51.486;6.610;2023-05-21T13:24:52;24.20;99.90
3005;DHT22;1512;51.486;6.610;2023-05-21T13:29:01;24.10;99.90
3005;DHT22;1512;51.486;6.610;2023-05-21T13:33:10;24.10;99.90
3005;DHT22;1512;51.486;6.610;2023-05-21T13:37:19;24.20;99.90
3005;DHT22;1512;51.486;6.610;2023-05-21T13:41:28;24.30;99.90
3005;DHT22;1512;51.486;6.610;2023-05-21T13:45:37;24.50;99.90
3005;DHT22;1512;51.486;6.610;2023-05-21T13:49:46;24.60;99.90
3005;DHT22;1512;51.486;6.610;2023-05-21T13:53:54;24.60;99.90
3005;DHT22;1512;51.486;6.610;2023-05-21T13:58:03;24.60;99.90
3005;DHT22;1512;51.486;6.610;2023-05-21T14:02:12;24.50;99.90
3005;DHT22;1512;51.486;6.610;2023-05-21T14:06:21;24.50;99.90
3005;DHT22;1512;51.486;6.610;2023-05-21T14:10:29;24.50;99.90
3005;DHT22;1512;51.486;6.610;2023-05-21T14:14:38;24.70;99.90
3005;DHT22;1512;51.486;6.610;2023-05-21T14:18:47;24.80;99.90
3005;DHT22;1512;51.486;6.610;2023-05-21T14:22:56;24.90;99.90
3005;DHT22;1512;51.486;6.610;2023-05-21T14:27:05;25.10;99.90
3005;DHT22;1512;51.486;6.610;2023-05-21T14:31:14;25.30;99.90
3005;DHT22;1512;51.486;6.610;2023-05-21T14:35:22;25.40;99.90
3005;DHT22;1512;51.486;6.610;2023-05-21T14:39:31;25.30;99.90
3005;DHT22;1512;51.486;6.610;2023-05-21T14:43:40;25.40;99.90
3005;DHT22;1512;51.486;6.610;2023-05-21T14:47:48;25.40;99.90
3005;DHT22;1512;51.486;6.610;2023-05-21T14:51:57;25.60;99.90
3005;DHT22;1512;51.486;6.610;2023-05-21T14:56:06;25.60;99.90
3005;DHT22;1512;51.486;6.610;2023-05-21T15:00:15;25.50;99.90
3005;DHT22;1512;51.486;6.610;2023-05-21T15:04:24;25.60;99.90
3005;DHT22;1512;51.486;6.610;2023-05-21T15:08:33;25.50;99.90
3005;DHT22;1512;51.486;6.610;2023-05-21T15:12:42;25.40;99.90
3005;DHT22;1512;51.486;6.610;2023-05-21T15:16:50;25.30;99.90
3005;DHT22;1512;51.486;6.610;2023-05-21T15:20:59;25.20;99.90
3005;DHT22;1512;51.486;6.610;2023-05-21T15:25:08;25.30;99.90
3005;DHT22;1512;51.486;6.610;2023-05-21T15:29:17;25.20;99.90
3005;DHT22;1512;51.486;6.610;2023-05-21T15:33:26;25.20;99.90
3005;DHT22;1512;51.486;6.610;2023-05-21T15:37:34;25.10;99.90
3005;DHT22;1512;51.486;6.610;2023-05-21T15:41:43;24.90;99.90
3005;DHT22;1512;51.486;6.610;2023-05-21T15:45:52;24.90;99.90
3005;DHT22;1512;51.486;6.610;2023-05-21T15:50:01;24.80;99.90
3005;DHT22;1512;51.486;6.610;2023-05-21T15:54:09;24.50;99.90
3005;DHT22;1512;51.486;6.610;2023-05-21T15:58:18;24.30;99.90
3005;DHT22;1512;51.486;6.610;2023-05-21T16:02:27;24.20;99.90
3005;DHT22;1512;51.486;6.610;2023-05-21T16:06:37;24.10;99.90
3005;DHT22;1512;51.486;6.610;2023-05-21T16:15:10;24.10;99.90
3005;DHT22;1512;51.486;6.610;2023-05-21T16:19:19;24.10;99.90
3005;DHT22;1512;51.486;6.610;2023-05-21T16:23:28;24.10;99.90
3005;DHT22;1512;51.486;6.610;2023-05-21T16:27:37;24.10;99.90
3005;DHT22;1512;51.486;6.610;2023-05-21T16:31:47;24.10;99.90
3005;DHT22;1512;51.486;6.610;2023-05-21T16:35:56;24.10;99.90
3005;DHT22;1512;51.486;6.610;2023-05-21T16:40:06;24.00;99.90
3005;DHT22;1512;51.486;6.610;2023-05-21T16:44:15;24.10;99.90
3005;DHT22;1512;51.486;6.610;2023-05-21T16:48:30;24.20;99.90
3005;DHT22;1512;51.486;6.610;2023-05-21T16:52:39;24.30;99.90
3005;DHT22;1512;51.486;6.610;2023-05-21T16:56:48;24.30;99.90
3005;DHT22;1512;51.486;6.610;2023-05-21T17:00:57;24.30;99.90
3005;DHT22;1512;51.486;6.610;2023-05-21T17:09:35;24.40;99.90
3005;DHT22;1512;51.486;6.610;2023-05-21T17:13:44;24.30;99.90
3005;DHT22;1512;51.486;6.610;2023-05-21T17:17:54;24.20;99.90
3005;DHT22;1512;51.486;6.610;2023-05-21T17:22:03;24.10;99.90
3005;DHT22;1512;51.486;6.610;2023-05-21T17:26:12;24.00;99.90
3005;DHT22;1512;51.486;6.610;2023-05-21T17:30:46;23.90;99.90
3005;DHT22;1512;51.486;6.610;2023-05-21T17:35:00;23.90;99.90
3005;DHT22;1512;51.486;6.610;2023-05-21T17:39:16;23.80;99.90
3005;DHT22;1512;51.486;6.610;2023-05-21T17:43:30;23.70;99.90
3005;DHT22;1512;51.486;6.610;2023-05-21T17:47:47;23.60;99.90
3005;DHT22;1512;51.486;6.610;2023-05-21T17:51:57;23.50;99.90
3005;DHT22;1512;51.486;6.610;2023-05-21T17:56:09;23.40;99.90
3005;DHT22;1512;51.486;6.610;2023-05-21T18:00:23;23.40;99.90
3005;DHT22;1512;51.486;6.610;2023-05-21T18:04:43;23.40;99.90
3005;DHT22;1512;51.486;6.610;2023-05-21T18:09:01;23.40;99.90
3005;DHT22;1512;51.486;6.610;2023-05-21T18:13:14;23.40;99.90
3005;DHT22;1512;51.486;6.610;2023-05-21T18:17:33;23.30;99.90
3005;DHT22;1512;51.486;6.610;2023-05-21T18:21:41;23.30;99.90
3005;DHT22;1512;51.486;6.610;2023-05-21T18:25:55;23.20;99.90
3005;DHT22;1512;51.486;6.610;2023-05-21T18:30:20;23.20;99.90
3005;DHT22;1512;51.486;6.610;2023-05-21T18:34:30;23.10;99.90
3005;DHT22;1512;51.486;6.610;2023-05-21T18:38:40;23.00;99.90
3005;DHT22;1512;51.486;6.610;2023-05-21T18:42:51;22.90;99.90
3005;DHT22;1512;51.486;6.610;2023-05-21T18:47:08;22.90;99.90
3005;DHT22;1512;51.486;6.610;2023-05-21T18:51:24;22.70;99.90
3005;DHT22;1512;51.486;6.610;2023-05-21T18:55:36;22.60;99.90
3005;DHT22;1512;51.486;6.610;2023-05-21T18:59:51;22.50;99.90
3005;DHT22;1512;51.486;6.610;2023-05-21T19:04:09;22.40;99.90
3005;DHT22;1512;51.486;6.610;2023-05-21T19:08:28;22.30;99.90
3005;DHT22;1512;51.486;6.610;2023-05-21T19:12:44;22.20;99.90
3005;DHT22;1512;51.486;6.610;2023-05-21T19:17:13;22.10;99.90
3005;DHT22;1512;51.486;6.610;2023-05-21T19:21:37;22.00;99.90
3005;DHT22;1512;51.486;6.610;2023-05-21T19:25:47;21.90;1.00
3005;DHT22;1512;51.486;6.610;2023-05-21T19:29:59;21.90;1.00
3005;DHT22;1512;51.486;6.610;2023-05-21T19:34:12;21.80;1.00
3005;DHT22;1512;51.486;6.610;2023-05-21T19:38:26;21.80;1.00
3005;DHT22;1512;51.486;6.610;2023-05-21T19:42:44;21.80;99.90
3005;DHT22;1512;51.486;6.610;2023-05-21T19:46:55;21.80;1.00
3005;DHT22;1512;51.486;6.610;2023-05-21T19:51:18;21.80;1.00
3005;DHT22;1512;51.486;6.610;2023-05-21T19:55:39;21.70;1.00
3005;DHT22;1512;51.486;6.610;2023-05-21T19:59:54;21.60;1.00
3005;DHT22;1512;51.486;6.610;2023-05-21T20:04:05;21.50;1.00
3005;DHT22;1512;51.486;6.610;2023-05-21T20:08:17;21.50;1.00
3005;DHT22;1512;51.486;6.610;2023-05-21T20:12:48;21.50;1.00
3005;DHT22;1512;51.486;6.610;2023-05-21T20:16:51;21.50;1.00
3005;DHT22;1512;51.486;6.610;2023-05-21T20:21:06;21.40;1.00
3005;DHT22;1512;51.486;6.610;2023-05-21T20:25:18;21.10;1.00
3005;DHT22;1512;51.486;6.610;2023-05-21T20:29:34;20.70;1.00
3005;DHT22;1512;51.486;6.610;2023-05-21T20:33:52;20.40;1.00
3005;DHT22;1512;51.486;6.610;2023-05-21T20:38:10;20.40;99.90
3005;DHT22;1512;51.486;6.610;2023-05-21T20:42:33;20.40;1.00
3005;DHT22;1512;51.486;6.610;2023-05-21T20:46:42;20.40;1.00
3005;DHT22;1512;51.486;6.610;2023-05-21T20:51:01;20.30;99.90
3005;DHT22;1512;51.486;6.610;2023-05-21T20:55:20;20.10;99.90
3005;DHT22;1512;51.486;6.610;2023-05-21T20:59:36;20.10;1.00
3005;DHT22;1512;51.486;6.610;2023-05-21T21:03:56;19.90;1.00
3005;DHT22;1512;51.486;6.610;2023-05-21T21:08:08;19.70;1.00
3005;DHT22;1512;51.486;6.610;2023-05-21T21:12:28;19.80;1.00
3005;DHT22;1512;51.486;6.610;2023-05-21T21:16:44;19.70;99.90
3005;DHT22;1512;51.486;6.610;2023-05-21T21:20:59;19.80;1.00
3005;DHT22;1512;51.486;6.610;2023-05-21T21:25:16;19.80;1.00
3005;DHT22;1512;51.486;6.610;2023-05-21T21:29:25;19.80;1.00
3005;DHT22;1512;51.486;6.610;2023-05-21T21:33:38;19.70;1.00
3005;DHT22;1512;51.486;6.610;2023-05-21T21:37:52;19.30;99.90
3005;DHT22;1512;51.486;6.610;2023-05-21T21:42:05;19.00;1.00
3005;DHT22;1512;51.486;6.610;2023-05-21T21:46:29;18.80;1.00
3005;DHT22;1512;51.486;6.610;2023-05-21T21:51:15;18.70;65.90
3005;DHT22;1512;51.486;6.610;2023-05-21T21:55:27;18.70;99.90
3005;DHT22;1512;51.486;6.610;2023-05-21T21:59:40;18.70;1.00
3005;DHT22;1512;51.486;6.610;2023-05-21T22:04:01;18.70;99.90
3005;DHT22;1512;51.486;6.610;2023-05-21T22:08:09;18.80;1.00
3005;DHT22;1512;51.486;6.610;2023-05-21T22:12:19;18.80;1.00
3005;DHT22;1512;51.486;6.610;2023-05-21T22:16:33;18.60;1.00
3005;DHT22;1512;51.486;6.610;2023-05-21T22:20:45;18.50;1.00
3005;DHT22;1512;51.486;6.610;2023-05-21T22:24:57;18.40;99.90
3005;DHT22;1512;51.486;6.610;2023-05-21T22:29:09;18.50;1.00
3005;DHT22;1512;51.486;6.610;2023-05-21T22:33:19;18.70;99.90
3005;DHT22;1512;51.486;6.610;2023-05-21T22:37:28;18.70;1.00
3005;DHT22;1512;51.486;6.610;2023-05-21T22:41:36;18.50;99.90
3005;DHT22;1512;51.486;6.610;2023-05-21T22:45:45;18.50;1.00
3005;DHT22;1512;51.486;6.610;2023-05-21T22:49:54;18.40;1.00
3005;DHT22;1512;51.486;6.610;2023-05-21T22:54:04;18.20;1.00
3005;DHT22;1512;51.486;6.610;2023-05-21T22:58:13;18.20;1.00
3005;DHT22;1512;51.486;6.610;2023-05-21T23:02:22;18.20;1.00
3005;DHT22;1512;51.486;6.610;2023-05-21T23:06:30;18.20;1.00
3005;DHT22;1512;51.486;6.610;2023-05-21T23:10:40;18.20;1.00
3005;DHT22;1512;51.486;6.610;2023-05-21T23:14:48;18.20;99.90
3005;DHT22;1512;51.486;6.610;2023-05-21T23:18:57;18.20;99.90
3005;DHT22;1512;51.486;6.610;2023-05-21T23:23:06;18.20;1.00
3005;DHT22;1512;51.486;6.610;2023-05-21T23:27:15;18.20;1.00
3005;DHT22;1512;51.486;6.610;2023-05-21T23:31:24;18.20;2.50
3005;DHT22;1512;51.486;6.610;2023-05-21T23:35:33;18.30;99.90
3005;DHT22;1512;51.486;6.610;2023-05-21T23:39:41;18.30;99.90
3005;DHT22;1512;51.486;6.610;2023-05-21T23:43:52;18.30;53.00
3005;DHT22;1512;51.486;6.610;2023-05-21T23:48:01;18.30;1.00
3005;DHT22;1512;51.486;6.610;2023-05-21T23:52:09;18.30;1.00
3005;DHT22;1512;51.486;6.610;2023-05-21T23:56:20;18.10;99.90
